createdAt,value
2017-11-22T00:00:05.402Z,6.8
2017-11-22T00:15:04.397Z,6.8
2017-11-22T00:30:05.490Z,6.8
2017-11-22T00:45:04.371Z,6.6
2017-11-22T01:00:04.861Z,6.6
2017-11-22T01:15:04.812Z,6.4
2017-11-22T01:30:08.048Z,6.3
2017-11-22T01:45:07.491Z,6.3
2017-11-22T02:00:04.940Z,6.1
2017-11-22T02:15:05.448Z,6.2
2017-11-22T02:30:05.060Z,6.1
2017-11-22T02:45:07.724Z,6
2017-11-22T03:00:05.726Z,5.8
2017-11-22T03:15:06.216Z,5.9
2017-11-22T03:30:04.664Z,5.7
2017-11-22T03:45:19.725Z,5.7
2017-11-22T04:00:04.844Z,5.6
2017-11-22T04:15:04.791Z,5.5
2017-11-22T04:30:05.060Z,5.6
2017-11-22T04:45:06.077Z,5.5
2017-11-22T05:00:04.506Z,5.4
2017-11-22T05:15:04.394Z,5.4
2017-11-22T05:30:04.297Z,5.5
2017-11-22T05:45:04.714Z,5.4
2017-11-22T06:00:04.601Z,5.4
2017-11-22T06:15:07.692Z,5.4
2017-11-22T06:30:04.813Z,5.3
2017-11-22T06:45:04.200Z,5.4
2017-11-22T07:00:04.614Z,5.5
2017-11-22T07:15:05.091Z,5.5
2017-11-22T07:30:04.753Z,5.8
2017-11-22T07:45:05.142Z,6.2
2017-11-22T08:00:05.633Z,6.9
2017-11-22T08:15:08.223Z,8.4
2017-11-22T08:30:07.869Z,9.8
2017-11-22T08:45:04.242Z,11.6
2017-11-22T09:00:08.330Z,12.4
2017-11-22T09:15:05.182Z,12.1
2017-11-22T09:30:04.400Z,11.4
2017-11-22T09:45:10.590Z,11.2
2017-11-22T10:00:05.063Z,11.9
2017-11-22T10:15:04.432Z,12
2017-11-22T10:30:04.517Z,11.9
2017-11-22T10:45:07.989Z,12.1
2017-11-22T11:00:05.584Z,12.5
2017-11-22T11:15:04.717Z,12.9
2017-11-22T11:30:04.825Z,13.1
2017-11-22T11:45:04.251Z,13.2
2017-11-22T12:00:06.257Z,13.4
2017-11-22T12:15:04.220Z,13.4
2017-11-22T12:30:05.424Z,13.3
2017-11-22T12:45:05.593Z,13.5
2017-11-22T13:00:06.010Z,13.5
2017-11-22T13:15:04.881Z,13.5
2017-11-22T13:30:05.292Z,13.4
2017-11-22T13:45:05.396Z,13.2
2017-11-22T14:00:05.176Z,12.9
2017-11-22T14:15:05.270Z,12.7
2017-11-22T14:30:05.407Z,12.4
2017-11-22T14:45:04.334Z,12.1
2017-11-22T15:00:04.789Z,11.8
2017-11-22T15:15:04.469Z,11.5
2017-11-22T15:30:05.097Z,11.2
2017-11-22T15:45:05.871Z,11
2017-11-22T16:00:04.455Z,10.8
2017-11-22T16:15:04.412Z,10.5
2017-11-22T16:30:04.610Z,10.2
2017-11-22T16:45:08.101Z,10
2017-11-22T17:00:07.818Z,9.7
2017-11-22T17:15:05.246Z,9.7
2017-11-22T17:30:05.848Z,9.3
2017-11-22T17:45:06.030Z,9
2017-11-22T18:00:08.045Z,8.8
2017-11-22T18:15:04.400Z,8.6
2017-11-22T18:30:08.229Z,8.4
2017-11-22T18:45:06.135Z,8.2
2017-11-22T19:00:05.135Z,8
2017-11-22T19:15:06.171Z,7.9
2017-11-22T19:30:40.726Z,7.6
2017-11-22T19:45:07.335Z,7.5
2017-11-22T20:00:04.298Z,7.5
2017-11-22T20:15:05.760Z,7.1
2017-11-22T20:30:04.488Z,7
2017-11-22T20:45:04.877Z,6.9
2017-11-22T21:01:09.595Z,6.9
2017-11-22T21:15:05.571Z,6.7
2017-11-22T21:30:04.235Z,6.4
2017-11-22T21:45:04.640Z,6.4
2017-11-22T22:00:06.102Z,6.2
2017-11-22T22:15:10.830Z,6.2
2017-11-22T22:30:04.436Z,6
2017-11-22T22:45:05.125Z,5.9
2017-11-22T23:00:04.615Z,5.9
2017-11-22T23:15:07.674Z,5.8
2017-11-22T23:30:06.343Z,5.7
2017-11-22T23:45:04.780Z,5.7
